Time;durP1;ratioP1;P1;durP2;ratioP2;P2;SDS_P1;SDS_P2;PMS_P1;PMS_P2;Temp;Humidity;BMP_temperature;BMP_pressure;BME280_temperature;BME280_humidity;BME280_pressure;Samples;Min_cycle;Max_cycle;Signal;HPM_P1;HPM_P2
2023/12/04 15:22:39;;;;;;;3.78;2.30;;;;;;;-2.16;100.00;92479.66;5148560;27;20138;-75
2023/12/04 15:25:08;;;;;;;3.78;2.47;;;;;;;-2.04;100.00;92481.53;5145460;27;20087;-76
2023/12/04 15:27:34;;;;;;;4.50;2.83;;;;;;;-2.01;100.00;92476.75;5147437;27;20398;-75
2023/12/04 15:29:59;;;;;;;4.10;3.03;;;;;;;-1.96;100.00;92473.56;5142842;27;20030;-76
2023/12/04 15:32:25;;;;;;;4.30;2.95;;;;;;;-1.96;100.00;92464.09;5147041;27;20084;-76
2023/12/04 15:34:51;;;;;;;3.63;2.75;;;;;;;-1.94;100.00;92469.00;5140296;27;20039;-76
2023/12/04 15:37:17;;;;;;;3.50;2.40;;;;;;;-1.87;100.00;92469.72;5133523;27;20040;-76
2023/12/04 15:39:42;;;;;;;3.35;2.05;;;;;;;-1.88;100.00;92471.53;5126343;27;20119;-76
2023/12/04 15:42:08;;;;;;;3.75;2.40;;;;;;;-1.81;100.00;92475.81;5126135;27;20035;-75
2023/12/04 15:44:33;;;;;;;6.03;3.47;;;;;;;-1.83;100.00;92472.69;5126117;27;20024;-75
2023/12/04 15:46:59;;;;;;;4.03;2.90;;;;;;;-1.82;100.00;92472.47;5126503;27;20101;-75
2023/12/04 15:49:24;;;;;;;6.00;3.15;;;;;;;-1.83;100.00;92472.69;5126261;27;20050;-76
2023/12/04 15:51:51;;;;;;;6.03;3.70;;;;;;;-1.85;100.00;92475.44;5126131;27;20066;-75
2023/12/04 15:54:16;;;;;;;4.10;2.88;;;;;;;-1.84;100.00;92466.00;5143933;27;20142;-75
2023/12/04 15:56:42;;;;;;;4.65;2.45;;;;;;;-1.81;100.00;92465.56;5146822;27;20570;-76
2023/12/04 15:59:08;;;;;;;3.60;2.53;;;;;;;-1.78;100.00;92455.66;5135549;27;20035;-75
2023/12/04 16:01:34;;;;;;;5.40;3.00;;;;;;;-1.76;100.00;92458.00;5126648;27;20088;-75
2023/12/04 16:03:59;;;;;;;4.60;2.40;;;;;;;-1.78;100.00;92468.50;5126287;27;20433;-75
2023/12/04 16:06:25;;;;;;;3.97;2.80;;;;;;;-1.77;100.00;92469.28;5124626;28;20035;-76
2023/12/04 16:08:52;;;;;;;3.72;2.45;;;;;;;-1.74;100.00;92450.88;5134607;27;20031;-75
2023/12/04 16:11:20;;;;;;;4.63;2.25;;;;;;;-1.74;100.00;92446.53;5132871;27;20107;-76
2023/12/04 16:13:46;;;;;;;30.77;4.50;;;;;;;-1.79;100.00;92453.31;5144260;27;20054;-75
2023/12/04 16:16:12;;;;;;;163.57;8.88;;;;;;;-1.91;100.00;92446.28;5125937;27;20027;-76
2023/12/04 16:18:38;;;;;;;120.10;7.50;;;;;;;-1.96;100.00;92453.03;5131382;27;20455;-76
2023/12/04 16:21:04;;;;;;;159.73;7.57;;;;;;;-2.06;100.00;92450.19;5125503;27;20078;-76
2023/12/04 16:23:30;;;;;;;11.50;3.78;;;;;;;-2.13;100.00;92448.44;5126317;27;20043;-75
2023/12/04 16:25:55;;;;;;;5.05;3.47;;;;;;;-2.17;100.00;92447.28;5131134;27;20046;-80
2023/12/04 16:28:22;;;;;;;5.00;3.33;;;;;;;-2.13;100.00;92445.09;5136509;27;20044;-77
2023/12/04 16:30:47;;;;;;;4.88;3.40;;;;;;;-2.14;100.00;92440.94;5130394;27;20087;-75
2023/12/04 16:33:13;;;;;;;5.75;3.92;;;;;;;-2.08;100.00;92447.81;5119328;27;20468;-75
2023/12/04 16:35:38;;;;;;;6.18;4.30;;;;;;;-2.10;100.00;92440.31;5117541;27;20035;-76
2023/12/04 16:38:04;;;;;;;6.38;3.28;;;;;;;-2.06;100.00;92438.13;5128423;27;20027;-77
2023/12/04 16:40:30;;;;;;;4.13;2.60;;;;;;;-2.04;100.00;92443.84;5122264;27;20051;-80
2023/12/04 16:42:55;;;;;;;5.25;3.50;;;;;;;-1.99;100.00;92438.06;5125403;27;20414;-80
2023/12/04 16:45:21;;;;;;;14.15;3.95;;;;;;;-2.03;100.00;92435.13;5127301;27;20035;-80
2023/12/04 16:47:46;;;;;;;17.65;3.92;;;;;;;-2.05;100.00;92444.03;5114001;27;20031;-80
2023/12/04 16:50:12;;;;;;;51.33;5.72;;;;;;;-2.09;100.00;92438.56;5120235;27;20127;-80
2023/12/04 16:52:38;;;;;;;25.58;4.63;;;;;;;-2.11;100.00;92440.53;5126612;27;20087;-80
2023/12/04 16:55:05;;;;;;;5.88;3.95;;;;;;;-2.15;100.00;92440.16;5128933;27;20055;-81
2023/12/04 16:57:31;;;;;;;72.30;6.30;;;;;;;-2.24;100.00;92436.28;5117872;27;20038;-82
2023/12/04 16:59:56;;;;;;;26.85;4.38;;;;;;;-2.29;100.00;92433.59;5118809;27;20030;-79
2023/12/04 17:02:23;;;;;;;7.25;5.15;;;;;;;-2.31;100.00;92438.91;5118447;27;20120;-77
2023/12/04 17:04:49;;;;;;;6.78;4.53;;;;;;;-2.28;100.00;92440.28;5123945;27;20458;-77
2023/12/04 17:07:15;;;;;;;6.13;3.90;;;;;;;-2.26;100.00;92427.25;5129716;27;20130;-81
2023/12/04 17:09:41;;;;;;;6.80;4.47;;;;;;;-2.27;100.00;92425.66;5119752;27;20544;-79
2023/12/04 17:12:07;;;;;;;6.00;4.40;;;;;;;-2.24;100.00;92432.94;5123561;27;20035;-79
2023/12/04 17:14:32;;;;;;;5.25;3.83;;;;;;;-2.22;100.00;92434.31;5127527;27;20046;-78
2023/12/04 17:16:58;;;;;;;6.63;4.43;;;;;;;-2.20;100.00;92431.53;5113984;27;20107;-78
2023/12/04 17:19:24;;;;;;;7.57;4.80;;;;;;;-2.14;100.00;92430.69;5129586;27;20105;-82
2023/12/04 17:21:49;;;;;;;5.82;4.43;;;;;;;-1.99;100.00;92435.50;5130414;27;20066;-79
2023/12/04 17:24:15;;;;;;;7.40;4.18;;;;;;;-2.02;100.00;92438.50;5129205;27;20073;-79
2023/12/04 17:26:40;;;;;;;7.68;4.20;;;;;;;-2.07;100.00;92441.69;5125031;27;20039;-80
2023/12/04 17:29:07;;;;;;;6.65;4.05;;;;;;;-2.07;100.00;92435.75;5124865;27;20058;-79
2023/12/04 17:31:33;;;;;;;6.50;4.38;;;;;;;-2.09;100.00;92430.88;5117279;27;20086;-80
2023/12/04 17:33:58;;;;;;;5.28;3.70;;;;;;;-2.09;100.00;92430.88;5119412;27;20618;-78
2023/12/04 17:36:24;;;;;;;7.00;4.43;;;;;;;-2.07;100.00;92438.34;5124686;27;20106;-78
2023/12/04 17:38:50;;;;;;;7.88;3.83;;;;;;;-2.21;100.00;92424.84;5123144;27;20045;-80
2023/12/04 17:41:16;;;;;;;5.60;4.03;;;;;;;-2.15;100.00;92431.69;5131203;27;20505;-80
2023/12/04 17:43:42;;;;;;;10.05;5.10;;;;;;;-2.18;100.00;92434.69;5132604;27;20091;-80
2023/12/04 17:46:08;;;;;;;10.10;4.18;;;;;;;-2.22;100.00;92442.00;5128219;27;20478;-80
2023/12/04 17:48:34;;;;;;;9.10;4.45;;;;;;;-2.19;100.00;92448.50;5106770;27;20040;-79
2023/12/04 17:51:00;;;;;;;4.35;3.05;;;;;;;-2.35;100.00;92448.00;5131763;27;20070;-81
2023/12/04 17:53:26;;;;;;;9.30;6.22;;;;;;;-2.34;100.00;92447.03;5127364;27;20089;-80
2023/12/04 17:55:52;;;;;;;5.05;3.50;;;;;;;-2.38;100.00;92451.00;5129787;27;20031;-78
2023/12/04 17:58:18;;;;;;;5.07;3.53;;;;;;;-2.37;100.00;92447.44;5115151;27;20031;-81
2023/12/04 18:00:43;;;;;;;5.25;3.95;;;;;;;-2.40;100.00;92445.28;5123247;27;20031;-78
2023/12/04 18:03:09;;;;;;;6.65;4.53;;;;;;;-2.32;100.00;92439.91;5123096;27;20686;-77
2023/12/04 18:05:35;;;;;;;5.63;3.30;;;;;;;-2.27;100.00;92441.03;5125158;27;20683;-81
2023/12/04 18:08:02;;;;;;;3.92;2.60;;;;;;;-2.23;100.00;92431.94;5118987;27;20550;-79
2023/12/04 18:10:28;;;;;;;4.38;2.50;;;;;;;-2.24;100.00;92435.53;5125914;27;20494;-80
2023/12/04 18:12:53;;;;;;;4.78;2.88;;;;;;;-2.24;100.00;92438.88;5123969;27;20395;-77
2023/12/04 18:15:19;;;;;;;5.63;2.75;;;;;;;-2.19;100.00;92443.38;5121832;27;20037;-78
2023/12/04 18:17:45;;;;;;;4.50;3.00;;;;;;;-2.16;100.00;92453.19;5118006;27;20039;-76
2023/12/04 18:20:15;;;;;;;6.32;4.00;;;;;;;-2.17;100.00;92444.72;5119841;27;20045;-77
2023/12/04 18:22:44;;;;;;;5.18;3.28;;;;;;;-2.20;100.00;92436.69;5123753;27;20051;-77
2023/12/04 18:25:11;;;;;;;5.00;3.47;;;;;;;-2.18;100.00;92427.78;5121857;27;20074;-79
2023/12/04 18:27:39;;;;;;;4.65;3.25;;;;;;;-2.14;100.00;92430.69;5129342;27;20028;-79
2023/12/04 18:30:05;;;;;;;4.07;2.88;;;;;;;-2.10;100.00;92431.84;5119246;27;20039;-79
2023/12/04 18:32:31;;;;;;;4.60;3.10;;;;;;;-2.12;100.00;92431.25;5125512;27;20478;-80
2023/12/04 18:34:58;;;;;;;5.97;3.42;;;;;;;-2.11;100.00;92425.94;5113200;28;20494;-81
2023/12/04 18:37:41;;;;;;;6.25;4.00;;;;;;;-2.04;100.00;92422.53;5133351;27;20035;-81
2023/12/04 18:40:08;;;;;;;5.00;3.60;;;;;;;-2.03;100.00;92424.09;5130728;27;20031;-79
2023/12/04 18:42:34;;;;;;;3.90;2.67;;;;;;;-2.07;100.00;92416.06;5111587;27;20027;-80
2023/12/04 18:45:01;;;;;;;4.63;2.70;;;;;;;-2.08;100.00;92414.47;5138337;27;20509;-82
2023/12/04 18:47:28;;;;;;;4.70;2.70;;;;;;;-2.12;100.00;92408.19;5122717;27;20381;-80
2023/12/04 18:49:57;;;;;;;5.10;3.30;;;;;;;-2.13;100.00;92411.75;5120856;27;20099;-80
2023/12/04 18:52:23;;;;;;;3.60;2.75;;;;;;;-1.95;100.00;92409.22;5131577;27;20035;-80
2023/12/04 18:54:48;;;;;;;5.82;3.78;;;;;;;-2.04;100.00;92414.84;5131457;27;20076;-80
2023/12/04 18:57:14;;;;;;;4.70;3.35;;;;;;;-2.04;100.00;92410.50;5123587;27;20046;-80
2023/12/04 18:59:39;;;;;;;4.93;3.60;;;;;;;-2.08;100.00;92399.06;5126737;27;20058;-80
2023/12/04 19:02:05;;;;;;;5.05;3.40;;;;;;;-2.10;100.00;92396.72;5119376;28;20540;-80
2023/12/04 19:04:35;;;;;;;5.40;3.85;;;;;;;-2.08;100.00;92388.81;5135008;27;20337;-80
2023/12/04 19:07:01;;;;;;;4.60;3.20;;;;;;;-2.08;100.00;92386.25;5123780;27;20033;-80
2023/12/04 19:09:27;;;;;;;5.75;3.90;;;;;;;-2.18;100.00;92394.44;5122275;27;20099;-79
2023/12/04 19:11:52;;;;;;;4.70;3.00;;;;;;;-2.12;100.00;92392.78;5133559;27;20069;-80
2023/12/04 19:14:18;;;;;;;4.40;2.90;;;;;;;-2.20;100.00;92390.50;5144441;27;20047;-80
2023/12/04 19:16:43;;;;;;;4.53;2.90;;;;;;;-2.24;100.00;92395.28;5119688;27;20521;-79
2023/12/04 19:19:09;;;;;;;5.07;3.67;;;;;;;-2.28;100.00;92388.22;5139207;27;20181;-80
2023/12/04 19:21:35;;;;;;;5.00;3.80;;;;;;;-2.21;100.00;92388.94;5122175;28;20570;-80
2023/12/04 19:24:02;;;;;;;5.65;4.05;;;;;;;-2.18;100.00;92388.53;5158962;27;20115;-80
2023/12/04 19:26:27;;;;;;;5.25;3.80;;;;;;;-2.20;100.00;92391.28;5160849;27;20481;-79
2023/12/04 19:28:53;;;;;;;6.38;4.22;;;;;;;-2.20;100.00;92396.41;5125462;27;20083;-80
2023/12/04 19:31:18;;;;;;;5.15;3.65;;;;;;;-2.18;100.00;92393.66;5124167;28;20032;-80
2023/12/04 19:33:44;;;;;;;5.28;3.85;;;;;;;-2.15;100.00;92382.97;5129547;27;20035;-79
2023/12/04 19:36:10;;;;;;;5.43;3.92;;;;;;;-2.19;100.00;92379.25;5115946;28;20048;-79
2023/12/04 19:38:36;;;;;;;5.00;3.60;;;;;;;-2.16;100.00;92381.38;5123342;28;20035;-79
2023/12/04 19:41:02;;;;;;;5.35;4.03;;;;;;;-2.14;100.00;92379.38;5126270;27;20100;-79
2023/12/04 19:43:28;;;;;;;5.45;3.70;;;;;;;-2.20;100.00;92381.03;5098097;27;20031;-79
2023/12/04 19:45:54;;;;;;;5.40;3.42;;;;;;;-2.26;100.00;92370.84;5133690;27;20084;-79
2023/12/04 19:48:19;;;;;;;5.10;3.70;;;;;;;-2.28;100.00;92383.06;5115084;28;20653;-79
2023/12/04 19:50:45;;;;;;;5.90;3.88;;;;;;;-2.29;100.00;92381.53;5129585;28;20599;-79
2023/12/04 19:53:10;;;;;;;4.95;3.70;;;;;;;-2.34;100.00;92377.81;5140472;28;20058;-79
2023/12/04 19:55:36;;;;;;;4.88;3.20;;;;;;;-2.32;100.00;92378.38;5135746;27;20106;-79
2023/12/04 19:58:27;;;;;;;5.15;3.72;;;;;;;-2.28;100.00;92383.84;5134041;27;20039;-79
2023/12/04 20:00:53;;;;;;;7.22;4.30;;;;;;;-2.24;100.00;92384.22;5146091;28;20062;-80
2023/12/04 20:03:22;;;;;;;5.63;4.35;;;;;;;-2.24;100.00;92369.63;5143919;28;20035;-79
2023/12/04 20:05:47;;;;;;;6.28;4.10;;;;;;;-2.14;100.00;92372.50;5139751;27;20054;-80
2023/12/04 20:08:14;;;;;;;6.22;3.97;;;;;;;-2.18;100.00;92368.78;5145216;27;20135;-79
2023/12/04 20:10:40;;;;;;;7.20;3.65;;;;;;;-2.19;100.00;92363.88;5131102;27;20043;-80
2023/12/04 20:13:06;;;;;;;5.70;4.03;;;;;;;-2.22;100.00;92361.72;5111829;27;20063;-79
2023/12/04 20:15:32;;;;;;;4.25;3.00;;;;;;;-2.23;100.00;92358.38;5127197;27;20358;-79
2023/12/04 20:18:03;;;;;;;4.50;2.80;;;;;;;-2.22;100.00;92354.03;5134274;27;20118;-79
2023/12/04 20:20:29;;;;;;;4.10;3.00;;;;;;;-2.23;100.00;92362.72;5133576;27;20051;-79
2023/12/04 20:22:55;;;;;;;4.32;3.10;;;;;;;-2.14;100.00;92366.56;5138458;27;20027;-79
2023/12/04 20:25:21;;;;;;;5.68;3.53;;;;;;;-2.10;100.00;92360.81;5148185;27;20035;-79
2023/12/04 20:27:48;;;;;;;5.10;3.70;;;;;;;-2.13;100.00;92358.66;5139022;27;20040;-80
2023/12/04 20:30:15;;;;;;;5.18;3.85;;;;;;;-2.06;100.00;92361.19;5146985;27;20042;-80
2023/12/04 20:32:41;;;;;;;4.50;3.25;;;;;;;-1.99;100.00;92356.75;5114736;28;20036;-80
2023/12/04 20:35:11;;;;;;;4.18;2.67;;;;;;;-1.86;100.00;92355.06;5129670;27;20516;-81
2023/12/04 20:37:37;;;;;;;4.25;2.90;;;;;;;-1.89;100.00;92354.50;5125072;28;20416;-79
2023/12/04 20:40:14;;;;;;;5.32;3.38;;;;;;;-2.00;100.00;92350.06;5128926;28;20032;-79
2023/12/04 20:42:39;;;;;;;4.68;3.28;;;;;;;-2.06;100.00;92345.78;5130971;27;20334;-80
2023/12/04 20:45:06;;;;;;;5.00;3.25;;;;;;;-2.11;100.00;92348.22;5126769;27;20057;-80
2023/12/04 20:47:31;;;;;;;4.53;3.30;;;;;;;-2.14;100.00;92348.63;5126288;28;20068;-80
2023/12/04 20:49:57;;;;;;;4.63;3.30;;;;;;;-1.98;100.00;92348.09;5126647;27;20046;-81
2023/12/04 20:52:22;;;;;;;4.70;3.50;;;;;;;-1.89;100.00;92348.59;5134647;27;20036;-81
2023/12/04 20:54:48;;;;;;;4.78;3.40;;;;;;;-1.94;100.00;92348.44;5140926;27;20038;-81
2023/12/04 20:57:13;;;;;;;5.10;3.22;;;;;;;-2.07;100.00;92339.09;5131473;27;20027;-81
2023/12/04 20:59:39;;;;;;;4.85;3.15;;;;;;;-2.05;100.00;92342.22;5129223;27;20039;-80
2023/12/04 21:02:05;;;;;;;4.75;3.20;;;;;;;-2.15;100.00;92319.63;5139767;27;20091;-81
2023/12/04 21:04:31;;;;;;;4.78;3.40;;;;;;;-2.10;100.00;92332.59;5126006;28;20023;-80
2023/12/04 21:06:57;;;;;;;5.10;3.20;;;;;;;-2.15;100.00;92326.53;5131273;27;20032;-81
2023/12/04 21:09:22;;;;;;;6.15;3.80;;;;;;;-2.15;100.00;92326.53;5122410;27;20038;-81
2023/12/04 21:11:48;;;;;;;4.80;3.20;;;;;;;-2.14;100.00;92325.53;5125895;28;20036;-80
2023/12/04 21:14:14;;;;;;;5.35;3.30;;;;;;;-2.07;100.00;92325.47;5142598;27;20402;-79
2023/12/04 21:16:40;;;;;;;4.50;3.10;;;;;;;-2.06;100.00;92335.53;5128875;28;20048;-79
2023/12/04 21:19:05;;;;;;;4.25;3.17;;;;;;;-2.06;100.00;92330.41;5135955;27;20023;-79
2023/12/04 21:21:31;;;;;;;5.18;3.45;;;;;;;-2.08;100.00;92327.25;5128935;27;20115;-79
2023/12/04 21:23:57;;;;;;;5.00;3.45;;;;;;;-2.09;100.00;92325.69;5123486;27;20050;-79
2023/12/04 21:26:22;;;;;;;4.78;3.35;;;;;;;-2.10;100.00;92329.25;5133394;27;20068;-80
2023/12/04 21:28:48;;;;;;;4.70;3.35;;;;;;;-2.11;100.00;92332.81;5134205;27;20063;-79
2023/12/04 21:31:14;;;;;;;5.38;3.70;;;;;;;-2.10;100.00;92322.31;5129331;27;20032;-80
2023/12/04 21:33:39;;;;;;;5.97;3.70;;;;;;;-2.06;100.00;92324.50;5136152;27;20544;-79
2023/12/04 21:36:08;;;;;;;5.30;3.53;;;;;;;-2.09;100.00;92328.25;5131247;27;20046;-79
2023/12/04 21:38:34;;;;;;;4.80;3.38;;;;;;;-2.10;100.00;92319.75;5131196;27;20542;-79
2023/12/04 21:41:00;;;;;;;4.28;3.10;;;;;;;-2.06;100.00;92327.81;5125764;27;20046;-79
2023/12/04 21:43:25;;;;;;;4.30;2.90;;;;;;;-2.05;100.00;92326.03;5131680;27;20027;-80
2023/12/04 21:45:51;;;;;;;3.92;2.95;;;;;;;-2.09;100.00;92318.00;5130057;27;20490;-79
2023/12/04 21:48:16;;;;;;;5.90;3.75;;;;;;;-2.09;100.00;92312.88;5132571;27;20043;-79
2023/12/04 21:50:43;;;;;;;5.63;3.60;;;;;;;-2.11;100.00;92314.88;5132329;27;20043;-78
2023/12/04 21:53:09;;;;;;;5.55;3.70;;;;;;;-2.10;100.00;92306.94;5126997;27;20043;-79
2023/12/04 21:55:34;;;;;;;5.55;3.80;;;;;;;-2.10;100.00;92304.38;5124132;27;20076;-79
2023/12/04 21:58:00;;;;;;;4.80;2.95;;;;;;;-2.16;100.00;92296.75;5124100;27;20122;-79
2023/12/04 22:00:27;;;;;;;4.35;2.80;;;;;;;-2.13;100.00;92298.91;5132979;27;20398;-79
2023/12/04 22:02:52;;;;;;;3.90;2.70;;;;;;;-2.10;100.00;92294.13;5124268;27;20031;-79
2023/12/04 22:05:18;;;;;;;3.63;2.40;;;;;;;-2.07;100.00;92289.56;5124268;27;20171;-79
2023/12/04 22:07:43;;;;;;;4.18;2.92;;;;;;;-2.15;100.00;92291.41;5132621;27;20122;-78
2023/12/04 22:10:09;;;;;;;3.92;2.75;;;;;;;-2.13;100.00;92291.22;5110799;28;20463;-79
2023/12/04 22:12:35;;;;;;;4.15;2.80;;;;;;;-2.09;100.00;92289.78;5121618;27;20038;-79
2023/12/04 22:15:00;;;;;;;4.28;2.97;;;;;;;-2.17;100.00;92282.38;5124218;27;20303;-79
